sensor_id;sensor_type;location;lat;lon;timestamp;pressure;altitude;pressure_sealevel;temperature;humidity
16461;BME280;8341;42.048;24.650;2023-02-26T00:00:00;96185.84;;;16.89;34.79
16461;BME280;8341;42.048;24.650;2023-02-26T00:02:29;96184.41;;;16.96;34.74
16461;BME280;8341;42.048;24.650;2023-02-26T00:04:55;96199.41;;;16.87;34.89
16461;BME280;8341;42.048;24.650;2023-02-26T00:07:22;96192.47;;;16.94;34.96
16461;BME280;8341;42.048;24.650;2023-02-26T00:09:55;96197.81;;;16.92;35.22
16461;BME280;8341;42.048;24.650;2023-02-26T00:12:22;96188.78;;;16.92;35.23
16461;BME280;8341;42.048;24.650;2023-02-26T00:14:49;96182.16;;;16.87;35.61
16461;BME280;8341;42.048;24.650;2023-02-26T00:17:36;96196.88;;;16.89;35.93
16461;BME280;8341;42.048;24.650;2023-02-26T00:20:08;96199.34;;;16.80;36.30
16461;BME280;8341;42.048;24.650;2023-02-26T00:22:36;96213.38;;;16.89;36.23
16461;BME280;8341;42.048;24.650;2023-02-26T00:25:05;96205.31;;;16.92;36.33
16461;BME280;8341;42.048;24.650;2023-02-26T00:27:32;96189.75;;;16.73;36.73
16461;BME280;8341;42.048;24.650;2023-02-26T00:30:00;96205.31;;;16.92;36.52
16461;BME280;8341;42.048;24.650;2023-02-26T00:32:27;96219.22;;;16.86;36.92
16461;BME280;8341;42.048;24.650;2023-02-26T00:34:55;96210.78;;;16.84;36.94
16461;BME280;8341;42.048;24.650;2023-02-26T00:37:31;96208.41;;;16.88;37.04
16461;BME280;8341;42.048;24.650;2023-02-26T00:40:11;96212.78;;;16.83;37.01
16461;BME280;8341;42.048;24.650;2023-02-26T00:42:41;96200.03;;;16.73;37.32
16461;BME280;8341;42.048;24.650;2023-02-26T00:45:13;96209.41;;;16.77;37.50
16461;BME280;8341;42.048;24.650;2023-02-26T00:47:44;96221.03;;;16.83;37.45
16461;BME280;8341;42.048;24.650;2023-02-26T00:50:17;96222.25;;;16.75;37.70
16461;BME280;8341;42.048;24.650;2023-02-26T00:52:55;96210.28;;;16.72;37.83
16461;BME280;8341;42.048;24.650;2023-02-26T00:55:27;96186.38;;;16.67;37.84
16461;BME280;8341;42.048;24.650;2023-02-26T00:57:53;96199.81;;;16.71;38.15
16461;BME280;8341;42.048;24.650;2023-02-26T01:00:21;96199.28;;;16.72;37.98
16461;BME280;8341;42.048;24.650;2023-02-26T01:02:48;96206.06;;;16.71;38.08
16461;BME280;8341;42.048;24.650;2023-02-26T01:05:16;96211.03;;;16.73;37.91
16461;BME280;8341;42.048;24.650;2023-02-26T01:07:46;96210.22;;;16.65;38.29
16461;BME280;8341;42.048;24.650;2023-02-26T01:10:16;96212.44;;;16.66;38.40
16461;BME280;8341;42.048;24.650;2023-02-26T01:12:45;96217.78;;;16.51;38.68
16461;BME280;8341;42.048;24.650;2023-02-26T01:15:13;96218.41;;;16.57;38.81
16461;BME280;8341;42.048;24.650;2023-02-26T01:17:44;96210.69;;;16.56;38.77
16461;BME280;8341;42.048;24.650;2023-02-26T01:20:16;96220.97;;;16.55;38.86
16461;BME280;8341;42.048;24.650;2023-02-26T01:22:49;96229.22;;;16.55;38.75
16461;BME280;8341;42.048;24.650;2023-02-26T01:25:23;96230.38;;;16.47;39.32
16461;BME280;8341;42.048;24.650;2023-02-26T01:27:53;96226.09;;;16.38;39.28
16461;BME280;8341;42.048;24.650;2023-02-26T01:30:23;96215.09;;;16.38;39.38
16461;BME280;8341;42.048;24.650;2023-02-26T01:32:54;96209.78;;;16.40;39.57
16461;BME280;8341;42.048;24.650;2023-02-26T01:35:31;96219.84;;;16.38;39.73
16461;BME280;8341;42.048;24.650;2023-02-26T01:38:08;96227.16;;;16.35;39.93
16461;BME280;8341;42.048;24.650;2023-02-26T01:41:08;96217.53;;;16.28;40.28
16461;BME280;8341;42.048;24.650;2023-02-26T01:43:45;96224.66;;;16.24;40.67
16461;BME280;8341;42.048;24.650;2023-02-26T01:46:22;96226.59;;;16.16;40.54
16461;BME280;8341;42.048;24.650;2023-02-26T01:48:53;96218.38;;;16.03;41.04
16461;BME280;8341;42.048;24.650;2023-02-26T01:51:43;96210.00;;;16.08;40.98
16461;BME280;8341;42.048;24.650;2023-02-26T01:54:11;96233.41;;;16.02;40.94
16461;BME280;8341;42.048;24.650;2023-02-26T01:56:38;96227.47;;;15.98;40.80
16461;BME280;8341;42.048;24.650;2023-02-26T01:59:09;96210.47;;;15.99;40.29
16461;BME280;8341;42.048;24.650;2023-02-26T02:01:38;96212.22;;;16.10;40.32
16461;BME280;8341;42.048;24.650;2023-02-26T02:04:08;96198.25;;;16.08;40.04
16461;BME280;8341;42.048;24.650;2023-02-26T02:06:35;96213.28;;;16.07;40.62
16461;BME280;8341;42.048;24.650;2023-02-26T02:09:05;96196.16;;;16.01;40.78
16461;BME280;8341;42.048;24.650;2023-02-26T02:11:32;96190.88;;;16.03;39.64
16461;BME280;8341;42.048;24.650;2023-02-26T02:14:06;96190.53;;;16.06;39.68
16461;BME280;8341;42.048;24.650;2023-02-26T02:16:47;96179.63;;;16.14;39.28
16461;BME280;8341;42.048;24.650;2023-02-26T02:19:32;96167.75;;;16.19;39.24
16461;BME280;8341;42.048;24.650;2023-02-26T02:22:18;96178.56;;;16.17;39.28
16461;BME280;8341;42.048;24.650;2023-02-26T02:24:58;96166.50;;;16.20;39.49
16461;BME280;8341;42.048;24.650;2023-02-26T02:27:39;96175.69;;;16.22;38.91
16461;BME280;8341;42.048;24.650;2023-02-26T02:30:23;96158.31;;;16.27;38.67
16461;BME280;8341;42.048;24.650;2023-02-26T02:32:57;96159.78;;;16.28;38.61
16461;BME280;8341;42.048;24.650;2023-02-26T02:35:29;96169.31;;;16.27;38.80
16461;BME280;8341;42.048;24.650;2023-02-26T02:38:04;96184.41;;;16.34;38.63
16461;BME280;8341;42.048;24.650;2023-02-26T02:40:33;96148.63;;;16.13;38.75
16461;BME280;8341;42.048;24.650;2023-02-26T02:43:05;96192.84;;;16.36;38.69
16461;BME280;8341;42.048;24.650;2023-02-26T02:45:40;96171.59;;;16.37;38.62
16461;BME280;8341;42.048;24.650;2023-02-26T02:48:14;96180.19;;;16.33;39.01
16461;BME280;8341;42.048;24.650;2023-02-26T02:50:44;96193.72;;;16.31;38.77
16461;BME280;8341;42.048;24.650;2023-02-26T02:53:18;96189.72;;;16.32;39.12
16461;BME280;8341;42.048;24.650;2023-02-26T02:55:50;96178.59;;;16.38;38.49
16461;BME280;8341;42.048;24.650;2023-02-26T02:58:21;96189.72;;;16.32;38.42
16461;BME280;8341;42.048;24.650;2023-02-26T03:00:53;96202.41;;;16.35;38.64
16461;BME280;8341;42.048;24.650;2023-02-26T03:03:25;96190.47;;;16.33;38.53
16461;BME280;8341;42.048;24.650;2023-02-26T03:05:54;96187.59;;;16.38;38.34
16461;BME280;8341;42.048;24.650;2023-02-26T03:08:24;96190.34;;;16.38;38.51
16461;BME280;8341;42.048;24.650;2023-02-26T03:10:52;96194.97;;;16.43;37.60
16461;BME280;8341;42.048;24.650;2023-02-26T03:13:22;96187.66;;;16.46;37.68
16461;BME280;8341;42.048;24.650;2023-02-26T03:15:57;96186.50;;;16.41;37.76
16461;BME280;8341;42.048;24.650;2023-02-26T03:18:39;96186.03;;;16.50;37.39
16461;BME280;8341;42.048;24.650;2023-02-26T03:21:14;96188.38;;;16.46;37.12
16461;BME280;8341;42.048;24.650;2023-02-26T03:23:58;96175.03;;;16.50;37.37
16461;BME280;8341;42.048;24.650;2023-02-26T03:26:30;96175.28;;;16.39;37.22
16461;BME280;8341;42.048;24.650;2023-02-26T03:29:01;96170.03;;;16.49;36.81
16461;BME280;8341;42.048;24.650;2023-02-26T03:31:34;96167.19;;;16.54;37.19
16461;BME280;8341;42.048;24.650;2023-02-26T03:34:09;96166.78;;;16.50;37.47
16461;BME280;8341;42.048;24.650;2023-02-26T03:36:42;96161.59;;;16.47;36.89
16461;BME280;8341;42.048;24.650;2023-02-26T03:39:21;96155.50;;;16.41;36.85
16461;BME280;8341;42.048;24.650;2023-02-26T03:41:55;96172.69;;;16.54;36.69
16461;BME280;8341;42.048;24.650;2023-02-26T03:44:26;96161.19;;;16.43;36.17
16461;BME280;8341;42.048;24.650;2023-02-26T03:46:59;96154.97;;;16.42;36.18
16461;BME280;8341;42.048;24.650;2023-02-26T03:49:32;96166.75;;;16.29;36.80
16461;BME280;8341;42.048;24.650;2023-02-26T03:52:00;96166.84;;;16.37;36.50
16461;BME280;8341;42.048;24.650;2023-02-26T03:54:32;96156.03;;;16.39;36.41
16461;BME280;8341;42.048;24.650;2023-02-26T03:57:00;96144.44;;;16.33;36.03
16461;BME280;8341;42.048;24.650;2023-02-26T03:59:27;96151.13;;;16.45;36.51
16461;BME280;8341;42.048;24.650;2023-02-26T04:01:58;96152.47;;;16.52;36.19
16461;BME280;8341;42.048;24.650;2023-02-26T04:04:32;96154.38;;;16.57;36.16
16461;BME280;8341;42.048;24.650;2023-02-26T04:07:00;96159.69;;;16.55;35.60
16461;BME280;8341;42.048;24.650;2023-02-26T04:09:27;96152.47;;;16.52;35.58
16461;BME280;8341;42.048;24.650;2023-02-26T04:11:55;96152.81;;;16.48;36.07
16461;BME280;8341;42.048;24.650;2023-02-26T04:14:22;96146.22;;;16.51;35.47
16461;BME280;8341;42.048;24.650;2023-02-26T04:16:49;96134.28;;;16.69;35.08
16461;BME280;8341;42.048;24.650;2023-02-26T04:19:16;96143.84;;;16.68;35.27
16461;BME280;8341;42.048;24.650;2023-02-26T04:21:44;96140.16;;;16.66;35.81
16461;BME280;8341;42.048;24.650;2023-02-26T04:24:11;96166.13;;;16.57;37.95
16461;BME280;8341;42.048;24.650;2023-02-26T04:26:38;96148.56;;;16.47;36.07
16461;BME280;8341;42.048;24.650;2023-02-26T04:29:05;96134.44;;;16.43;37.60
16461;BME280;8341;42.048;24.650;2023-02-26T04:31:31;96151.88;;;16.25;36.31
16461;BME280;8341;42.048;24.650;2023-02-26T04:33:58;96117.44;;;16.32;36.31
16461;BME280;8341;42.048;24.650;2023-02-26T04:36:25;96121.88;;;16.35;36.80
16461;BME280;8341;42.048;24.650;2023-02-26T04:38:53;96119.44;;;16.31;36.49
16461;BME280;8341;42.048;24.650;2023-02-26T04:41:20;96142.63;;;16.36;36.47
16461;BME280;8341;42.048;24.650;2023-02-26T04:43:47;96142.31;;;16.26;36.69
16461;BME280;8341;42.048;24.650;2023-02-26T04:46:13;96130.38;;;16.23;36.48
16461;BME280;8341;42.048;24.650;2023-02-26T04:48:40;96140.13;;;16.24;36.81
16461;BME280;8341;42.048;24.650;2023-02-26T04:51:07;96135.28;;;16.17;37.32
16461;BME280;8341;42.048;24.650;2023-02-26T04:53:34;96125.09;;;16.25;36.81
16461;BME280;8341;42.048;24.650;2023-02-26T04:56:02;96126.03;;;16.28;36.67
16461;BME280;8341;42.048;24.650;2023-02-26T04:58:29;96120.25;;;16.18;37.05
16461;BME280;8341;42.048;24.650;2023-02-26T05:00:56;96125.75;;;16.18;37.26
16461;BME280;8341;42.048;24.650;2023-02-26T05:03:23;96131.19;;;16.11;37.39
16461;BME280;8341;42.048;24.650;2023-02-26T05:05:50;96111.91;;;15.90;37.23
16461;BME280;8341;42.048;24.650;2023-02-26T05:08:17;96125.13;;;15.92;38.28
16461;BME280;8341;42.048;24.650;2023-02-26T05:10:44;96113.53;;;15.86;38.51
16461;BME280;8341;42.048;24.650;2023-02-26T05:13:12;96109.47;;;15.66;37.60
16461;BME280;8341;42.048;24.650;2023-02-26T05:15:39;96142.38;;;15.19;41.46
16461;BME280;8341;42.048;24.650;2023-02-26T05:18:06;96140.34;;;15.46;38.08
16461;BME280;8341;42.048;24.650;2023-02-26T05:20:33;96176.69;;;15.13;43.38
16461;BME280;8341;42.048;24.650;2023-02-26T05:22:59;96175.91;;;14.73;44.38
16461;BME280;8341;42.048;24.650;2023-02-26T05:25:26;96174.53;;;14.79;44.52
16461;BME280;8341;42.048;24.650;2023-02-26T05:27:53;96145.84;;;14.80;43.29
16461;BME280;8341;42.048;24.650;2023-02-26T05:30:22;96134.53;;;15.36;39.13
16461;BME280;8341;42.048;24.650;2023-02-26T05:32:48;96131.47;;;15.40;40.68
16461;BME280;8341;42.048;24.650;2023-02-26T05:35:15;96142.78;;;15.36;43.03
16461;BME280;8341;42.048;24.650;2023-02-26T05:37:42;96150.31;;;15.23;43.31
16461;BME280;8341;42.048;24.650;2023-02-26T05:40:10;96138.47;;;15.15;43.69
16461;BME280;8341;42.048;24.650;2023-02-26T05:42:37;96143.00;;;14.99;41.83
16461;BME280;8341;42.048;24.650;2023-02-26T05:45:05;96140.13;;;15.18;41.45
16461;BME280;8341;42.048;24.650;2023-02-26T05:47:34;96150.50;;;15.25;39.64
16461;BME280;8341;42.048;24.650;2023-02-26T05:50:01;96148.38;;;15.31;39.02
16461;BME280;8341;42.048;24.650;2023-02-26T05:52:28;96157.91;;;15.30;42.23
16461;BME280;8341;42.048;24.650;2023-02-26T05:54:55;96165.50;;;15.24;43.53
16461;BME280;8341;42.048;24.650;2023-02-26T05:57:22;96165.59;;;15.18;42.92
16461;BME280;8341;42.048;24.650;2023-02-26T05:59:49;96176.78;;;15.20;40.59
16461;BME280;8341;42.048;24.650;2023-02-26T06:02:16;96181.25;;;15.49;38.03
16461;BME280;8341;42.048;24.650;2023-02-26T06:04:44;96173.00;;;15.62;38.68
16461;BME280;8341;42.048;24.650;2023-02-26T06:07:11;96189.78;;;15.72;39.63
16461;BME280;8341;42.048;24.650;2023-02-26T06:09:38;96207.25;;;15.48;41.92
16461;BME280;8341;42.048;24.650;2023-02-26T06:12:05;96200.03;;;15.19;43.93
16461;BME280;8341;42.048;24.650;2023-02-26T06:14:33;96179.28;;;14.66;46.10
16461;BME280;8341;42.048;24.650;2023-02-26T06:17:00;96196.84;;;15.15;40.82
16461;BME280;8341;42.048;24.650;2023-02-26T06:19:26;96201.94;;;15.37;41.28
16461;BME280;8341;42.048;24.650;2023-02-26T06:21:55;96198.75;;;15.73;37.93
16461;BME280;8341;42.048;24.650;2023-02-26T06:24:21;96218.72;;;15.86;42.05
16461;BME280;8341;42.048;24.650;2023-02-26T06:26:48;96212.28;;;15.84;38.32
16461;BME280;8341;42.048;24.650;2023-02-26T06:29:15;96207.38;;;16.03;38.02
16461;BME280;8341;42.048;24.650;2023-02-26T06:31:45;96192.34;;;16.04;38.88
16461;BME280;8341;42.048;24.650;2023-02-26T06:34:12;96193.38;;;16.14;38.09
16461;BME280;8341;42.048;24.650;2023-02-26T06:36:39;96174.53;;;16.18;38.07
16461;BME280;8341;42.048;24.650;2023-02-26T06:39:07;96185.28;;;16.29;38.26
16461;BME280;8341;42.048;24.650;2023-02-26T06:41:34;96205.75;;;16.41;39.84
16461;BME280;8341;42.048;24.650;2023-02-26T06:44:01;96204.47;;;16.42;39.47
16461;BME280;8341;42.048;24.650;2023-02-26T06:46:28;96210.53;;;16.41;41.30
16461;BME280;8341;42.048;24.650;2023-02-26T06:48:55;96203.66;;;16.34;42.08
16461;BME280;8341;42.048;24.650;2023-02-26T06:51:21;96190.94;;;15.77;44.57
16461;BME280;8341;42.048;24.650;2023-02-26T06:53:48;96189.69;;;15.38;45.80
16461;BME280;8341;42.048;24.650;2023-02-26T06:56:16;96169.00;;;15.50;42.74
16461;BME280;8341;42.048;24.650;2023-02-26T06:58:43;96185.75;;;15.86;43.34
16461;BME280;8341;42.048;24.650;2023-02-26T07:01:10;96194.31;;;16.16;38.41
16461;BME280;8341;42.048;24.650;2023-02-26T07:03:37;96187.78;;;16.40;39.69
16461;BME280;8341;42.048;24.650;2023-02-26T07:06:05;96183.47;;;16.32;41.01
16461;BME280;8341;42.048;24.650;2023-02-26T07:08:33;96200.06;;;16.39;40.80
16461;BME280;8341;42.048;24.650;2023-02-26T07:11:00;96188.38;;;16.46;40.46
16461;BME280;8341;42.048;24.650;2023-02-26T07:13:29;96189.00;;;16.73;40.44
16461;BME280;8341;42.048;24.650;2023-02-26T07:15:56;96203.38;;;17.00;40.53
16461;BME280;8341;42.048;24.650;2023-02-26T07:18:23;96207.03;;;17.23;40.39
16461;BME280;8341;42.048;24.650;2023-02-26T07:20:50;96206.19;;;17.35;39.66
16461;BME280;8341;42.048;24.650;2023-02-26T07:23:16;96198.84;;;17.38;38.98
16461;BME280;8341;42.048;24.650;2023-02-26T07:25:43;96201.75;;;17.32;38.89
16461;BME280;8341;42.048;24.650;2023-02-26T07:28:10;96210.91;;;17.56;38.87
16461;BME280;8341;42.048;24.650;2023-02-26T07:30:38;96216.84;;;17.67;38.69
16461;BME280;8341;42.048;24.650;2023-02-26T07:33:07;96201.78;;;17.68;36.85
16461;BME280;8341;42.048;24.650;2023-02-26T07:35:34;96211.38;;;17.82;37.54
16461;BME280;8341;42.048;24.650;2023-02-26T07:38:01;96227.31;;;18.04;36.73
16461;BME280;8341;42.048;24.650;2023-02-26T07:40:28;96226.66;;;18.34;36.95
16461;BME280;8341;42.048;24.650;2023-02-26T07:42:55;96218.66;;;18.51;36.58
16461;BME280;8341;42.048;24.650;2023-02-26T07:45:22;96219.03;;;18.63;35.68
16461;BME280;8341;42.048;24.650;2023-02-26T07:47:51;96220.69;;;18.73;35.90
16461;BME280;8341;42.048;24.650;2023-02-26T07:50:19;96220.13;;;18.60;36.74
16461;BME280;8341;42.048;24.650;2023-02-26T07:52:50;96215.00;;;18.71;36.58
16461;BME280;8341;42.048;24.650;2023-02-26T07:55:17;96209.06;;;18.60;37.02
16461;BME280;8341;42.048;24.650;2023-02-26T07:57:44;96184.97;;;18.68;36.64
16461;BME280;8341;42.048;24.650;2023-02-26T08:00:11;96197.31;;;18.74;36.56
16461;BME280;8341;42.048;24.650;2023-02-26T08:02:39;96178.88;;;18.47;36.82
16461;BME280;8341;42.048;24.650;2023-02-26T08:05:07;96199.88;;;18.72;36.32
16461;BME280;8341;42.048;24.650;2023-02-26T08:07:34;96201.81;;;18.27;36.54
16461;BME280;8341;42.048;24.650;2023-02-26T08:10:02;96157.78;;;17.98;36.49
16461;BME280;8341;42.048;24.650;2023-02-26T08:12:29;96196.22;;;18.04;36.87
16461;BME280;8341;42.048;24.650;2023-02-26T08:14:55;96189.44;;;18.12;36.47
16461;BME280;8341;42.048;24.650;2023-02-26T08:17:22;96200.25;;;18.54;37.33
16461;BME280;8341;42.048;24.650;2023-02-26T08:19:49;96181.97;;;18.28;36.71
16461;BME280;8341;42.048;24.650;2023-02-26T08:22:17;96204.22;;;18.30;36.99
16461;BME280;8341;42.048;24.650;2023-02-26T08:24:44;96205.75;;;18.54;36.96
16461;BME280;8341;42.048;24.650;2023-02-26T08:27:11;96194.72;;;18.69;37.36
16461;BME280;8341;42.048;24.650;2023-02-26T08:29:38;96194.56;;;18.90;37.89
16461;BME280;8341;42.048;24.650;2023-02-26T08:32:04;96184.44;;;18.92;36.77
16461;BME280;8341;42.048;24.650;2023-02-26T08:34:31;96176.00;;;18.09;39.26
16461;BME280;8341;42.048;24.650;2023-02-26T08:36:58;96192.97;;;18.21;38.87
16461;BME280;8341;42.048;24.650;2023-02-26T08:39:26;96197.16;;;18.06;38.18
16461;BME280;8341;42.048;24.650;2023-02-26T08:41:57;96197.53;;;18.10;38.76
16461;BME280;8341;42.048;24.650;2023-02-26T08:44:24;96184.97;;;18.60;38.79
16461;BME280;8341;42.048;24.650;2023-02-26T08:46:50;96192.50;;;18.75;36.05
16461;BME280;8341;42.048;24.650;2023-02-26T08:49:17;96189.03;;;18.97;36.34
16461;BME280;8341;42.048;24.650;2023-02-26T08:51:44;96195.28;;;18.90;35.67
16461;BME280;8341;42.048;24.650;2023-02-26T08:54:11;96175.41;;;18.84;36.01
16461;BME280;8341;42.048;24.650;2023-02-26T08:56:39;96161.41;;;18.97;35.57
16461;BME280;8341;42.048;24.650;2023-02-26T08:59:06;96181.09;;;18.79;35.99
16461;BME280;8341;42.048;24.650;2023-02-26T09:01:36;96185.88;;;19.08;35.89
16461;BME280;8341;42.048;24.650;2023-02-26T09:04:02;96195.06;;;19.33;35.82
16461;BME280;8341;42.048;24.650;2023-02-26T09:06:29;96192.25;;;19.64;35.12
16461;BME280;8341;42.048;24.650;2023-02-26T09:08:56;96191.50;;;19.71;34.67
16461;BME280;8341;42.048;24.650;2023-02-26T09:11:23;96192.78;;;19.70;34.86
16461;BME280;8341;42.048;24.650;2023-02-26T09:13:51;96211.09;;;20.05;35.34
16461;BME280;8341;42.048;24.650;2023-02-26T09:16:18;96202.59;;;20.03;33.54
16461;BME280;8341;42.048;24.650;2023-02-26T09:18:44;96188.34;;;20.14;33.24
16461;BME280;8341;42.048;24.650;2023-02-26T09:21:11;96177.63;;;19.78;33.48
16461;BME280;8341;42.048;24.650;2023-02-26T09:23:38;96193.34;;;19.68;34.77
16461;BME280;8341;42.048;24.650;2023-02-26T09:26:04;96194.44;;;19.73;34.88
16461;BME280;8341;42.048;24.650;2023-02-26T09:28:33;96193.09;;;19.89;34.70
16461;BME280;8341;42.048;24.650;2023-02-26T09:31:01;96192.72;;;19.92;34.16
16461;BME280;8341;42.048;24.650;2023-02-26T09:33:28;96188.13;;;20.27;33.45
16461;BME280;8341;42.048;24.650;2023-02-26T09:35:55;96176.72;;;20.23;33.87
16461;BME280;8341;42.048;24.650;2023-02-26T09:38:21;96168.97;;;20.14;32.90
16461;BME280;8341;42.048;24.650;2023-02-26T09:40:51;96160.50;;;20.12;33.73
16461;BME280;8341;42.048;24.650;2023-02-26T09:43:48;96184.13;;;20.45;33.55
16461;BME280;8341;42.048;24.650;2023-02-26T09:46:29;96190.16;;;20.84;32.97
16461;BME280;8341;42.048;24.650;2023-02-26T09:49:04;96182.25;;;21.22;32.34
16461;BME280;8341;42.048;24.650;2023-02-26T09:51:34;96194.16;;;21.15;31.54
16461;BME280;8341;42.048;24.650;2023-02-26T09:54:08;96190.94;;;21.60;31.70
16461;BME280;8341;42.048;24.650;2023-02-26T09:56:37;96192.75;;;21.82;30.64
16461;BME280;8341;42.048;24.650;2023-02-26T09:59:04;96173.56;;;21.77;30.83
16461;BME280;8341;42.048;24.650;2023-02-26T10:01:37;96169.88;;;21.92;30.76
16461;BME280;8341;42.048;24.650;2023-02-26T10:04:15;96184.38;;;22.17;30.73
16461;BME280;8341;42.048;24.650;2023-02-26T10:06:56;96163.25;;;22.31;30.54
16461;BME280;8341;42.048;24.650;2023-02-26T10:09:35;96162.66;;;22.59;29.89
16461;BME280;8341;42.048;24.650;2023-02-26T10:12:09;96162.00;;;22.68;29.76
16461;BME280;8341;42.048;24.650;2023-02-26T10:14:40;96159.41;;;22.00;30.44
16461;BME280;8341;42.048;24.650;2023-02-26T10:17:17;96166.59;;;22.03;30.60
16461;BME280;8341;42.048;24.650;2023-02-26T10:19:49;96170.69;;;22.02;30.86
16461;BME280;8341;42.048;24.650;2023-02-26T10:22:23;96169.59;;;22.14;30.22
16461;BME280;8341;42.048;24.650;2023-02-26T10:24:54;96160.13;;;22.17;29.63
16461;BME280;8341;42.048;24.650;2023-02-26T10:27:35;96161.78;;;22.03;30.46
16461;BME280;8341;42.048;24.650;2023-02-26T10:30:08;96178.03;;;21.21;31.21
16461;BME280;8341;42.048;24.650;2023-02-26T10:32:48;96172.16;;;21.34;31.31
16461;BME280;8341;42.048;24.650;2023-02-26T10:35:19;96192.22;;;21.25;30.96
16461;BME280;8341;42.048;24.650;2023-02-26T10:37:53;96165.97;;;21.43;30.93
16461;BME280;8341;42.048;24.650;2023-02-26T10:40:25;96162.63;;;21.10;31.48
16461;BME280;8341;42.048;24.650;2023-02-26T10:42:56;96160.75;;;21.30;31.06
16461;BME280;8341;42.048;24.650;2023-02-26T10:45:32;96158.41;;;21.44;31.52
16461;BME280;8341;42.048;24.650;2023-02-26T10:48:24;96145.59;;;20.89;31.75
16461;BME280;8341;42.048;24.650;2023-02-26T10:50:56;96159.94;;;21.20;31.23
16461;BME280;8341;42.048;24.650;2023-02-26T10:53:24;96130.00;;;21.36;31.21
16461;BME280;8341;42.048;24.650;2023-02-26T10:55:55;96152.50;;;21.74;31.29
16461;BME280;8341;42.048;24.650;2023-02-26T10:58:25;96132.91;;;21.89;29.85
16461;BME280;8341;42.048;24.650;2023-02-26T11:00:54;96135.44;;;21.77;29.96
16461;BME280;8341;42.048;24.650;2023-02-26T11:03:31;96126.47;;;21.87;29.35
16461;BME280;8341;42.048;24.650;2023-02-26T11:05:59;96150.16;;;21.88;30.49
16461;BME280;8341;42.048;24.650;2023-02-26T11:08:32;96153.31;;;21.84;29.67
16461;BME280;8341;42.048;24.650;2023-02-26T11:11:00;96167.41;;;21.10;30.59
16461;BME280;8341;42.048;24.650;2023-02-26T11:13:30;96147.16;;;21.00;30.65
16461;BME280;8341;42.048;24.650;2023-02-26T11:16:00;96139.31;;;20.89;30.11
16461;BME280;8341;42.048;24.650;2023-02-26T11:18:32;96116.09;;;21.01;29.88
16461;BME280;8341;42.048;24.650;2023-02-26T11:21:04;96134.66;;;21.33;29.78
16461;BME280;8341;42.048;24.650;2023-02-26T11:23:32;96129.59;;;21.56;29.71
16461;BME280;8341;42.048;24.650;2023-02-26T11:26:02;96112.88;;;21.47;30.13
16461;BME280;8341;42.048;24.650;2023-02-26T11:28:34;96100.31;;;21.46;30.04
16461;BME280;8341;42.048;24.650;2023-02-26T11:31:05;96110.97;;;20.98;29.71
16461;BME280;8341;42.048;24.650;2023-02-26T11:33:36;96118.41;;;21.30;30.22
16461;BME280;8341;42.048;24.650;2023-02-26T11:36:08;96119.72;;;21.29;30.01
16461;BME280;8341;42.048;24.650;2023-02-26T11:38:35;96119.94;;;21.57;29.23
16461;BME280;8341;42.048;24.650;2023-02-26T11:41:04;96117.22;;;21.84;29.40
16461;BME280;8341;42.048;24.650;2023-02-26T11:43:35;96123.66;;;22.30;28.49
16461;BME280;8341;42.048;24.650;2023-02-26T11:46:04;96089.56;;;22.30;27.63
16461;BME280;8341;42.048;24.650;2023-02-26T11:48:39;96092.06;;;22.62;27.75
16461;BME280;8341;42.048;24.650;2023-02-26T11:51:09;96088.00;;;22.36;28.14
16461;BME280;8341;42.048;24.650;2023-02-26T11:53:42;96074.00;;;22.44;28.10
16461;BME280;8341;42.048;24.650;2023-02-26T11:56:12;96086.88;;;22.85;27.41
16461;BME280;8341;42.048;24.650;2023-02-26T11:58:43;96085.84;;;23.00;27.38
16461;BME280;8341;42.048;24.650;2023-02-26T12:01:12;96070.28;;;22.68;27.02
16461;BME280;8341;42.048;24.650;2023-02-26T12:03:46;96075.53;;;22.64;27.70
16461;BME280;8341;42.048;24.650;2023-02-26T12:06:16;96085.66;;;22.69;28.12
16461;BME280;8341;42.048;24.650;2023-02-26T12:08:43;96079.59;;;22.17;26.14
16461;BME280;8341;42.048;24.650;2023-02-26T12:11:45;96074.69;;;22.35;27.88
16461;BME280;8341;42.048;24.650;2023-02-26T12:17:20;96095.63;;;22.91;27.49
16461;BME280;8341;42.048;24.650;2023-02-26T12:19:57;96077.31;;;22.69;26.46
16461;BME280;8341;42.048;24.650;2023-02-26T12:22:44;96074.69;;;22.71;26.39
16461;BME280;8341;42.048;24.650;2023-02-26T12:25:31;96092.06;;;22.62;26.97
16461;BME280;8341;42.048;24.650;2023-02-26T12:28:15;96086.84;;;21.59;27.28
16461;BME280;8341;42.048;24.650;2023-02-26T12:30:55;96085.09;;;21.64;27.12
16461;BME280;8341;42.048;24.650;2023-02-26T12:33:33;96097.56;;;21.29;27.65
16461;BME280;8341;42.048;24.650;2023-02-26T12:36:21;96095.97;;;21.35;28.58
16461;BME280;8341;42.048;24.650;2023-02-26T12:39:01;96107.34;;;21.47;29.12
16461;BME280;8341;42.048;24.650;2023-02-26T12:41:55;96076.31;;;21.41;28.77
16461;BME280;8341;42.048;24.650;2023-02-26T12:47:34;96065.06;;;20.87;29.47
16461;BME280;8341;42.048;24.650;2023-02-26T12:50:16;96059.41;;;20.78;30.58
16461;BME280;8341;42.048;24.650;2023-02-26T12:53:18;96079.81;;;20.90;29.61
16461;BME280;8341;42.048;24.650;2023-02-26T12:56:03;96074.50;;;20.67;29.92
16461;BME280;8341;42.048;24.650;2023-02-26T12:58:59;96067.88;;;20.63;30.49
16461;BME280;8341;42.048;24.650;2023-02-26T13:01:50;96095.25;;;20.58;31.04
16461;BME280;8341;42.048;24.650;2023-02-26T13:04:43;96106.00;;;20.22;31.18
16461;BME280;8341;42.048;24.650;2023-02-26T13:07:40;96098.00;;;20.02;31.71
16461;BME280;8341;42.048;24.650;2023-02-26T13:10:21;96101.78;;;19.89;31.89
16461;BME280;8341;42.048;24.650;2023-02-26T13:13:01;96103.75;;;19.96;31.91
16461;BME280;8341;42.048;24.650;2023-02-26T13:15:46;96090.50;;;19.94;32.33
16461;BME280;8341;42.048;24.650;2023-02-26T13:18:23;96093.69;;;19.83;32.42
16461;BME280;8341;42.048;24.650;2023-02-26T13:20:55;96109.13;;;19.94;32.59
16461;BME280;8341;42.048;24.650;2023-02-26T13:23:29;96114.13;;;19.88;32.89
16461;BME280;8341;42.048;24.650;2023-02-26T13:26:02;96123.25;;;20.06;32.81